sensor_id;sensor_type;location;lat;lon;timestamp;P1;durP1;ratioP1;P2;durP2;ratioP2
4786;SDS011;62338;48.832;9.422;2023-04-03T00:01:02;4.20;;;3.10;;
4786;SDS011;62338;48.832;9.422;2023-04-03T00:03:04;8.37;;;4.07;;
4786;SDS011;62338;48.832;9.422;2023-04-03T00:05:06;6.77;;;4.17;;
4786;SDS011;62338;48.832;9.422;2023-04-03T00:07:08;4.53;;;2.93;;
4786;SDS011;62338;48.832;9.422;2023-04-03T00:09:10;5.40;;;3.90;;
4786;SDS011;62338;48.832;9.422;2023-04-03T00:11:12;6.40;;;3.40;;
4786;SDS011;62338;48.832;9.422;2023-04-03T00:13:14;5.43;;;3.90;;
4786;SDS011;62338;48.832;9.422;2023-04-03T00:21:29;8.17;;;3.40;;
4786;SDS011;62338;48.832;9.422;2023-04-03T00:23:30;7.27;;;4.07;;
4786;SDS011;62338;48.832;9.422;2023-04-03T00:25:32;4.97;;;3.93;;
4786;SDS011;62338;48.832;9.422;2023-04-03T00:27:35;5.90;;;4.00;;
4786;SDS011;62338;48.832;9.422;2023-04-03T00:29:39;8.37;;;4.07;;
4786;SDS011;62338;48.832;9.422;2023-04-03T00:31:40;5.00;;;3.20;;
4786;SDS011;62338;48.832;9.422;2023-04-03T00:33:42;6.60;;;4.10;;
4786;SDS011;62338;48.832;9.422;2023-04-03T00:35:44;7.80;;;4.43;;
4786;SDS011;62338;48.832;9.422;2023-04-03T00:37:46;6.73;;;3.63;;
4786;SDS011;62338;48.832;9.422;2023-04-03T00:39:48;7.07;;;4.10;;
4786;SDS011;62338;48.832;9.422;2023-04-03T00:41:50;5.17;;;3.67;;
4786;SDS011;62338;48.832;9.422;2023-04-03T00:43:52;4.30;;;3.63;;
4786;SDS011;62338;48.832;9.422;2023-04-03T00:45:57;6.30;;;3.90;;
4786;SDS011;62338;48.832;9.422;2023-04-03T00:48:00;10.27;;;3.70;;
4786;SDS011;62338;48.832;9.422;2023-04-03T00:50:04;6.00;;;4.00;;
4786;SDS011;62338;48.832;9.422;2023-04-03T00:52:07;5.43;;;3.70;;
4786;SDS011;62338;48.832;9.422;2023-04-03T00:54:14;5.17;;;3.80;;
4786;SDS011;62338;48.832;9.422;2023-04-03T00:56:17;6.20;;;4.00;;
4786;SDS011;62338;48.832;9.422;2023-04-03T00:58:20;6.60;;;3.60;;
4786;SDS011;62338;48.832;9.422;2023-04-03T01:00:27;5.53;;;3.60;;
4786;SDS011;62338;48.832;9.422;2023-04-03T01:02:29;5.10;;;3.30;;
4786;SDS011;62338;48.832;9.422;2023-04-03T01:06:36;4.97;;;3.53;;
4786;SDS011;62338;48.832;9.422;2023-04-03T01:08:38;5.07;;;3.80;;
4786;SDS011;62338;48.832;9.422;2023-04-03T01:10:40;4.73;;;3.53;;
4786;SDS011;62338;48.832;9.422;2023-04-03T01:12:43;4.87;;;3.40;;
4786;SDS011;62338;48.832;9.422;2023-04-03T01:14:51;7.50;;;4.07;;
4786;SDS011;62338;48.832;9.422;2023-04-03T01:16:55;5.10;;;3.60;;
4786;SDS011;62338;48.832;9.422;2023-04-03T01:18:57;5.60;;;3.67;;
4786;SDS011;62338;48.832;9.422;2023-04-03T01:21:07;5.57;;;3.63;;
4786;SDS011;62338;48.832;9.422;2023-04-03T01:23:25;7.50;;;4.20;;
4786;SDS011;62338;48.832;9.422;2023-04-03T01:25:48;8.30;;;3.57;;
4786;SDS011;62338;48.832;9.422;2023-04-03T01:27:55;4.57;;;3.77;;
4786;SDS011;62338;48.832;9.422;2023-04-03T01:29:57;5.60;;;3.30;;
4786;SDS011;62338;48.832;9.422;2023-04-03T01:32:00;5.57;;;3.37;;
4786;SDS011;62338;48.832;9.422;2023-04-03T01:34:04;5.37;;;3.80;;
4786;SDS011;62338;48.832;9.422;2023-04-03T01:36:06;3.43;;;2.90;;
4786;SDS011;62338;48.832;9.422;2023-04-03T01:38:08;5.63;;;3.40;;
4786;SDS011;62338;48.832;9.422;2023-04-03T01:40:10;6.30;;;3.50;;
4786;SDS011;62338;48.832;9.422;2023-04-03T01:42:12;5.63;;;3.37;;
4786;SDS011;62338;48.832;9.422;2023-04-03T01:44:14;5.20;;;3.60;;
4786;SDS011;62338;48.832;9.422;2023-04-03T01:46:18;5.50;;;3.07;;
4786;SDS011;62338;48.832;9.422;2023-04-03T01:48:21;4.43;;;2.93;;
4786;SDS011;62338;48.832;9.422;2023-04-03T01:50:23;5.20;;;3.40;;
4786;SDS011;62338;48.832;9.422;2023-04-03T01:52:24;4.13;;;3.10;;
4786;SDS011;62338;48.832;9.422;2023-04-03T01:54:26;3.90;;;3.23;;
4786;SDS011;62338;48.832;9.422;2023-04-03T01:56:28;4.00;;;2.73;;
4786;SDS011;62338;48.832;9.422;2023-04-03T01:58:30;5.30;;;3.53;;
4786;SDS011;62338;48.832;9.422;2023-04-03T02:00:35;4.20;;;3.30;;
4786;SDS011;62338;48.832;9.422;2023-04-03T02:02:37;3.73;;;3.00;;
4786;SDS011;62338;48.832;9.422;2023-04-03T02:04:39;3.67;;;2.50;;
4786;SDS011;62338;48.832;9.422;2023-04-03T02:06:41;5.10;;;3.47;;
4786;SDS011;62338;48.832;9.422;2023-04-03T02:08:43;4.60;;;3.17;;
4786;SDS011;62338;48.832;9.422;2023-04-03T02:10:46;6.90;;;3.33;;
4786;SDS011;62338;48.832;9.422;2023-04-03T02:12:49;7.70;;;3.00;;
4786;SDS011;62338;48.832;9.422;2023-04-03T02:14:51;4.27;;;2.47;;
4786;SDS011;62338;48.832;9.422;2023-04-03T02:16:53;5.13;;;2.90;;
4786;SDS011;62338;48.832;9.422;2023-04-03T02:18:55;3.97;;;2.77;;
4786;SDS011;62338;48.832;9.422;2023-04-03T02:20:57;8.17;;;3.57;;
4786;SDS011;62338;48.832;9.422;2023-04-03T02:22:59;5.10;;;3.00;;
4786;SDS011;62338;48.832;9.422;2023-04-03T02:25:01;8.37;;;3.20;;
4786;SDS011;62338;48.832;9.422;2023-04-03T02:27:04;6.00;;;3.30;;
4786;SDS011;62338;48.832;9.422;2023-04-03T02:29:06;5.80;;;2.83;;
4786;SDS011;62338;48.832;9.422;2023-04-03T02:31:08;5.47;;;2.90;;
4786;SDS011;62338;48.832;9.422;2023-04-03T02:33:11;4.33;;;2.60;;
4786;SDS011;62338;48.832;9.422;2023-04-03T02:35:13;5.20;;;3.50;;
4786;SDS011;62338;48.832;9.422;2023-04-03T02:37:14;4.23;;;3.00;;
4786;SDS011;62338;48.832;9.422;2023-04-03T02:39:16;5.27;;;3.33;;
4786;SDS011;62338;48.832;9.422;2023-04-03T02:41:18;4.03;;;3.03;;
4786;SDS011;62338;48.832;9.422;2023-04-03T02:43:20;4.80;;;2.67;;
4786;SDS011;62338;48.832;9.422;2023-04-03T02:45:21;5.30;;;2.60;;
4786;SDS011;62338;48.832;9.422;2023-04-03T02:47:23;3.60;;;2.60;;
4786;SDS011;62338;48.832;9.422;2023-04-03T02:49:25;3.50;;;2.40;;
4786;SDS011;62338;48.832;9.422;2023-04-03T02:51:27;4.33;;;2.47;;
4786;SDS011;62338;48.832;9.422;2023-04-03T02:53:28;4.50;;;2.47;;
4786;SDS011;62338;48.832;9.422;2023-04-03T02:55:30;3.53;;;2.53;;
4786;SDS011;62338;48.832;9.422;2023-04-03T02:57:32;5.17;;;2.73;;
4786;SDS011;62338;48.832;9.422;2023-04-03T02:59:34;3.50;;;2.60;;
4786;SDS011;62338;48.832;9.422;2023-04-03T03:01:36;4.00;;;2.60;;
4786;SDS011;62338;48.832;9.422;2023-04-03T03:03:38;3.33;;;2.27;;
4786;SDS011;62338;48.832;9.422;2023-04-03T03:05:40;3.33;;;2.50;;
4786;SDS011;62338;48.832;9.422;2023-04-03T03:07:42;3.73;;;2.53;;
4786;SDS011;62338;48.832;9.422;2023-04-03T03:09:44;5.90;;;2.30;;
4786;SDS011;62338;48.832;9.422;2023-04-03T03:11:45;5.07;;;2.33;;
4786;SDS011;62338;48.832;9.422;2023-04-03T03:13:47;4.00;;;2.47;;
4786;SDS011;62338;48.832;9.422;2023-04-03T03:15:49;3.90;;;2.60;;
4786;SDS011;62338;48.832;9.422;2023-04-03T03:17:51;3.90;;;2.27;;
4786;SDS011;62338;48.832;9.422;2023-04-03T03:19:53;3.80;;;2.53;;
4786;SDS011;62338;48.832;9.422;2023-04-03T03:21:54;5.10;;;2.37;;
4786;SDS011;62338;48.832;9.422;2023-04-03T03:23:57;4.10;;;2.60;;
4786;SDS011;62338;48.832;9.422;2023-04-03T03:26:00;3.87;;;2.40;;
4786;SDS011;62338;48.832;9.422;2023-04-03T03:28:04;4.03;;;2.23;;
4786;SDS011;62338;48.832;9.422;2023-04-03T03:30:06;6.50;;;2.67;;
4786;SDS011;62338;48.832;9.422;2023-04-03T03:32:08;4.40;;;2.37;;
4786;SDS011;62338;48.832;9.422;2023-04-03T03:34:10;3.80;;;2.43;;
4786;SDS011;62338;48.832;9.422;2023-04-03T03:36:12;7.33;;;2.37;;
4786;SDS011;62338;48.832;9.422;2023-04-03T03:38:14;5.90;;;3.43;;
4786;SDS011;62338;48.832;9.422;2023-04-03T03:40:16;6.70;;;2.73;;
4786;SDS011;62338;48.832;9.422;2023-04-03T03:42:18;2.83;;;2.07;;
4786;SDS011;62338;48.832;9.422;2023-04-03T03:44:20;3.77;;;2.43;;
4786;SDS011;62338;48.832;9.422;2023-04-03T03:46:22;5.60;;;2.20;;
4786;SDS011;62338;48.832;9.422;2023-04-03T03:48:24;4.30;;;2.37;;
4786;SDS011;62338;48.832;9.422;2023-04-03T03:50:25;3.87;;;2.80;;
4786;SDS011;62338;48.832;9.422;2023-04-03T03:52:27;4.43;;;2.40;;
4786;SDS011;62338;48.832;9.422;2023-04-03T03:54:29;3.20;;;2.33;;
4786;SDS011;62338;48.832;9.422;2023-04-03T03:56:31;5.90;;;2.40;;
4786;SDS011;62338;48.832;9.422;2023-04-03T03:58:33;3.63;;;2.10;;
4786;SDS011;62338;48.832;9.422;2023-04-03T04:00:35;6.07;;;2.10;;
4786;SDS011;62338;48.832;9.422;2023-04-03T04:02:36;3.57;;;2.30;;
4786;SDS011;62338;48.832;9.422;2023-04-03T04:04:38;3.70;;;2.17;;
4786;SDS011;62338;48.832;9.422;2023-04-03T04:06:40;3.53;;;2.10;;
4786;SDS011;62338;48.832;9.422;2023-04-03T04:08:42;2.63;;;2.20;;
4786;SDS011;62338;48.832;9.422;2023-04-03T04:10:44;4.47;;;2.30;;
4786;SDS011;62338;48.832;9.422;2023-04-03T04:12:45;2.80;;;1.90;;
4786;SDS011;62338;48.832;9.422;2023-04-03T04:14:47;3.70;;;1.80;;
4786;SDS011;62338;48.832;9.422;2023-04-03T04:16:49;2.83;;;2.07;;
4786;SDS011;62338;48.832;9.422;2023-04-03T04:18:51;4.27;;;2.07;;
4786;SDS011;62338;48.832;9.422;2023-04-03T04:20:52;5.20;;;2.50;;
4786;SDS011;62338;48.832;9.422;2023-04-03T04:22:54;3.30;;;2.10;;
4786;SDS011;62338;48.832;9.422;2023-04-03T04:24:56;3.27;;;2.17;;
4786;SDS011;62338;48.832;9.422;2023-04-03T04:26:58;3.70;;;2.20;;
4786;SDS011;62338;48.832;9.422;2023-04-03T04:29:00;3.30;;;2.20;;
4786;SDS011;62338;48.832;9.422;2023-04-03T04:31:02;3.43;;;2.03;;
4786;SDS011;62338;48.832;9.422;2023-04-03T04:33:04;4.60;;;2.30;;
4786;SDS011;62338;48.832;9.422;2023-04-03T04:35:06;3.63;;;1.70;;
4786;SDS011;62338;48.832;9.422;2023-04-03T04:37:08;3.33;;;2.10;;
4786;SDS011;62338;48.832;9.422;2023-04-03T04:39:11;3.93;;;2.30;;
4786;SDS011;62338;48.832;9.422;2023-04-03T04:41:12;4.90;;;2.20;;
4786;SDS011;62338;48.832;9.422;2023-04-03T04:43:14;4.00;;;2.00;;
4786;SDS011;62338;48.832;9.422;2023-04-03T04:45:17;3.17;;;2.10;;
4786;SDS011;62338;48.832;9.422;2023-04-03T04:47:19;3.17;;;2.00;;
4786;SDS011;62338;48.832;9.422;2023-04-03T04:49:21;4.30;;;2.23;;
4786;SDS011;62338;48.832;9.422;2023-04-03T04:51:23;3.40;;;2.00;;
4786;SDS011;62338;48.832;9.422;2023-04-03T04:53:25;2.80;;;2.00;;
4786;SDS011;62338;48.832;9.422;2023-04-03T04:55:27;3.00;;;2.00;;
4786;SDS011;62338;48.832;9.422;2023-04-03T04:57:28;3.93;;;2.30;;
4786;SDS011;62338;48.832;9.422;2023-04-03T04:59:30;3.37;;;2.00;;
4786;SDS011;62338;48.832;9.422;2023-04-03T05:01:32;3.47;;;2.00;;
4786;SDS011;62338;48.832;9.422;2023-04-03T05:03:34;3.23;;;1.87;;
4786;SDS011;62338;48.832;9.422;2023-04-03T05:05:37;5.73;;;2.90;;
4786;SDS011;62338;48.832;9.422;2023-04-03T05:07:39;3.47;;;2.17;;
4786;SDS011;62338;48.832;9.422;2023-04-03T05:09:42;3.77;;;2.20;;
4786;SDS011;62338;48.832;9.422;2023-04-03T05:11:44;3.67;;;2.20;;
4786;SDS011;62338;48.832;9.422;2023-04-03T05:13:46;3.13;;;2.00;;
4786;SDS011;62338;48.832;9.422;2023-04-03T05:15:48;3.40;;;2.23;;
4786;SDS011;62338;48.832;9.422;2023-04-03T05:17:50;4.03;;;2.80;;
4786;SDS011;62338;48.832;9.422;2023-04-03T05:19:52;5.03;;;2.50;;
4786;SDS011;62338;48.832;9.422;2023-04-03T05:21:54;3.93;;;1.97;;
4786;SDS011;62338;48.832;9.422;2023-04-03T05:23:56;3.17;;;1.63;;
4786;SDS011;62338;48.832;9.422;2023-04-03T05:25:59;2.73;;;2.23;;
4786;SDS011;62338;48.832;9.422;2023-04-03T05:28:01;4.13;;;2.10;;
4786;SDS011;62338;48.832;9.422;2023-04-03T05:30:03;2.40;;;1.80;;
4786;SDS011;62338;48.832;9.422;2023-04-03T05:32:05;5.93;;;2.40;;
4786;SDS011;62338;48.832;9.422;2023-04-03T05:34:07;4.90;;;2.77;;
4786;SDS011;62338;48.832;9.422;2023-04-03T05:36:09;2.47;;;1.80;;
4786;SDS011;62338;48.832;9.422;2023-04-03T05:38:11;2.50;;;1.90;;
4786;SDS011;62338;48.832;9.422;2023-04-03T05:40:13;4.10;;;2.40;;
4786;SDS011;62338;48.832;9.422;2023-04-03T05:42:17;3.80;;;2.07;;
4786;SDS011;62338;48.832;9.422;2023-04-03T05:44:18;3.30;;;2.17;;
4786;SDS011;62338;48.832;9.422;2023-04-03T05:46:20;5.47;;;2.10;;
4786;SDS011;62338;48.832;9.422;2023-04-03T05:48:23;5.33;;;1.97;;
4786;SDS011;62338;48.832;9.422;2023-04-03T05:50:25;3.50;;;2.40;;
4786;SDS011;62338;48.832;9.422;2023-04-03T05:52:31;2.90;;;1.90;;
4786;SDS011;62338;48.832;9.422;2023-04-03T05:54:37;2.70;;;2.07;;
4786;SDS011;62338;48.832;9.422;2023-04-03T05:56:39;3.20;;;1.80;;
4786;SDS011;62338;48.832;9.422;2023-04-03T05:58:41;4.30;;;2.20;;
4786;SDS011;62338;48.832;9.422;2023-04-03T06:00:43;3.20;;;2.30;;
4786;SDS011;62338;48.832;9.422;2023-04-03T06:02:45;3.30;;;2.00;;
4786;SDS011;62338;48.832;9.422;2023-04-03T06:04:47;4.17;;;2.10;;
4786;SDS011;62338;48.832;9.422;2023-04-03T06:06:54;3.30;;;2.10;;
4786;SDS011;62338;48.832;9.422;2023-04-03T06:08:57;4.30;;;2.20;;
4786;SDS011;62338;48.832;9.422;2023-04-03T06:10:59;3.10;;;1.83;;
4786;SDS011;62338;48.832;9.422;2023-04-03T06:13:01;5.53;;;2.23;;
4786;SDS011;62338;48.832;9.422;2023-04-03T06:15:03;3.80;;;2.43;;
4786;SDS011;62338;48.832;9.422;2023-04-03T06:17:05;3.70;;;2.30;;
4786;SDS011;62338;48.832;9.422;2023-04-03T06:19:07;4.17;;;2.30;;
4786;SDS011;62338;48.832;9.422;2023-04-03T06:21:11;4.83;;;2.40;;
4786;SDS011;62338;48.832;9.422;2023-04-03T06:23:12;4.87;;;2.50;;
4786;SDS011;62338;48.832;9.422;2023-04-03T06:25:14;5.90;;;2.67;;
4786;SDS011;62338;48.832;9.422;2023-04-03T06:27:18;6.80;;;3.17;;
4786;SDS011;62338;48.832;9.422;2023-04-03T06:29:20;5.33;;;2.50;;
4786;SDS011;62338;48.832;9.422;2023-04-03T06:31:22;4.43;;;2.60;;
4786;SDS011;62338;48.832;9.422;2023-04-03T06:33:24;4.20;;;2.40;;
4786;SDS011;62338;48.832;9.422;2023-04-03T06:35:26;6.53;;;2.30;;
4786;SDS011;62338;48.832;9.422;2023-04-03T06:37:29;3.90;;;2.33;;
4786;SDS011;62338;48.832;9.422;2023-04-03T06:39:31;4.30;;;2.53;;
4786;SDS011;62338;48.832;9.422;2023-04-03T06:41:33;3.37;;;2.07;;
4786;SDS011;62338;48.832;9.422;2023-04-03T06:43:37;6.57;;;2.97;;
4786;SDS011;62338;48.832;9.422;2023-04-03T06:45:39;3.70;;;1.93;;
4786;SDS011;62338;48.832;9.422;2023-04-03T06:47:40;3.60;;;2.47;;
4786;SDS011;62338;48.832;9.422;2023-04-03T06:49:43;5.93;;;2.50;;
4786;SDS011;62338;48.832;9.422;2023-04-03T06:51:45;4.17;;;2.53;;
4786;SDS011;62338;48.832;9.422;2023-04-03T06:53:47;3.63;;;2.30;;
4786;SDS011;62338;48.832;9.422;2023-04-03T06:55:49;3.27;;;2.53;;
4786;SDS011;62338;48.832;9.422;2023-04-03T06:57:51;6.53;;;2.33;;
4786;SDS011;62338;48.832;9.422;2023-04-03T06:59:53;5.40;;;2.30;;
4786;SDS011;62338;48.832;9.422;2023-04-03T07:01:55;5.60;;;2.57;;
4786;SDS011;62338;48.832;9.422;2023-04-03T07:03:57;3.33;;;2.20;;
4786;SDS011;62338;48.832;9.422;2023-04-03T07:05:59;5.80;;;2.37;;
4786;SDS011;62338;48.832;9.422;2023-04-03T07:08:01;4.70;;;2.70;;
4786;SDS011;62338;48.832;9.422;2023-04-03T07:10:03;4.50;;;2.13;;
4786;SDS011;62338;48.832;9.422;2023-04-03T07:12:05;6.07;;;2.47;;
4786;SDS011;62338;48.832;9.422;2023-04-03T07:14:07;6.40;;;2.40;;
4786;SDS011;62338;48.832;9.422;2023-04-03T07:16:09;6.67;;;3.47;;
4786;SDS011;62338;48.832;9.422;2023-04-03T07:18:12;7.73;;;2.50;;
4786;SDS011;62338;48.832;9.422;2023-04-03T07:20:14;3.90;;;2.23;;
4786;SDS011;62338;48.832;9.422;2023-04-03T07:22:16;9.13;;;3.40;;
4786;SDS011;62338;48.832;9.422;2023-04-03T07:24:18;10.57;;;5.17;;
4786;SDS011;62338;48.832;9.422;2023-04-03T07:26:20;14.63;;;5.87;;
4786;SDS011;62338;48.832;9.422;2023-04-03T07:28:23;9.13;;;4.53;;
4786;SDS011;62338;48.832;9.422;2023-04-03T07:30:25;8.60;;;2.93;;
4786;SDS011;62338;48.832;9.422;2023-04-03T07:32:28;9.33;;;3.50;;
4786;SDS011;62338;48.832;9.422;2023-04-03T07:34:30;6.70;;;3.40;;
4786;SDS011;62338;48.832;9.422;2023-04-03T07:36:32;6.73;;;2.10;;
4786;SDS011;62338;48.832;9.422;2023-04-03T07:38:35;3.63;;;1.90;;
4786;SDS011;62338;48.832;9.422;2023-04-03T07:40:37;3.50;;;2.47;;
4786;SDS011;62338;48.832;9.422;2023-04-03T07:42:40;5.07;;;3.33;;
4786;SDS011;62338;48.832;9.422;2023-04-03T07:44:43;5.13;;;2.20;;
4786;SDS011;62338;48.832;9.422;2023-04-03T07:46:44;4.30;;;1.97;;
4786;SDS011;62338;48.832;9.422;2023-04-03T07:48:48;4.40;;;2.20;;
4786;SDS011;62338;48.832;9.422;2023-04-03T07:50:50;4.50;;;2.27;;
4786;SDS011;62338;48.832;9.422;2023-04-03T07:52:52;6.37;;;2.73;;
4786;SDS011;62338;48.832;9.422;2023-04-03T07:54:55;3.73;;;2.20;;
4786;SDS011;62338;48.832;9.422;2023-04-03T07:56:57;3.80;;;1.67;;
4786;SDS011;62338;48.832;9.422;2023-04-03T07:58:59;3.37;;;2.30;;
4786;SDS011;62338;48.832;9.422;2023-04-03T08:01:01;4.43;;;2.10;;
4786;SDS011;62338;48.832;9.422;2023-04-03T08:03:03;3.80;;;1.87;;
4786;SDS011;62338;48.832;9.422;2023-04-03T08:05:05;7.77;;;2.60;;
4786;SDS011;62338;48.832;9.422;2023-04-03T08:07:07;7.03;;;2.93;;
4786;SDS011;62338;48.832;9.422;2023-04-03T08:09:09;5.50;;;2.37;;
4786;SDS011;62338;48.832;9.422;2023-04-03T08:11:11;4.40;;;2.10;;
4786;SDS011;62338;48.832;9.422;2023-04-03T08:13:13;3.30;;;1.87;;
4786;SDS011;62338;48.832;9.422;2023-04-03T08:15:14;3.23;;;1.80;;
4786;SDS011;62338;48.832;9.422;2023-04-03T08:17:17;4.83;;;2.37;;
4786;SDS011;62338;48.832;9.422;2023-04-03T08:19:18;4.87;;;2.30;;
4786;SDS011;62338;48.832;9.422;2023-04-03T08:21:27;5.57;;;2.47;;
4786;SDS011;62338;48.832;9.422;2023-04-03T08:23:28;9.33;;;2.50;;
4786;SDS011;62338;48.832;9.422;2023-04-03T08:25:30;5.53;;;2.23;;
4786;SDS011;62338;48.832;9.422;2023-04-03T08:27:32;3.87;;;2.07;;
4786;SDS011;62338;48.832;9.422;2023-04-03T08:29:34;4.10;;;2.00;;
4786;SDS011;62338;48.832;9.422;2023-04-03T08:31:38;4.67;;;1.90;;
4786;SDS011;62338;48.832;9.422;2023-04-03T08:33:40;7.53;;;2.27;;
4786;SDS011;62338;48.832;9.422;2023-04-03T08:35:42;5.70;;;2.30;;
4786;SDS011;62338;48.832;9.422;2023-04-03T08:37:44;4.93;;;2.37;;
4786;SDS011;62338;48.832;9.422;2023-04-03T08:39:46;6.80;;;1.90;;
4786;SDS011;62338;48.832;9.422;2023-04-03T08:41:49;3.50;;;1.90;;
4786;SDS011;62338;48.832;9.422;2023-04-03T08:44:07;3.57;;;1.90;;
4786;SDS011;62338;48.832;9.422;2023-04-03T08:46:26;7.90;;;3.07;;
4786;SDS011;62338;48.832;9.422;2023-04-03T08:48:48;4.40;;;2.10;;
4786;SDS011;62338;48.832;9.422;2023-04-03T08:50:53;4.17;;;2.33;;
4786;SDS011;62338;48.832;9.422;2023-04-03T08:52:59;4.40;;;2.00;;
4786;SDS011;62338;48.832;9.422;2023-04-03T08:57:35;5.00;;;2.33;;
4786;SDS011;62338;48.832;9.422;2023-04-03T08:59:40;8.60;;;2.27;;
4786;SDS011;62338;48.832;9.422;2023-04-03T09:01:42;6.73;;;2.43;;
4786;SDS011;62338;48.832;9.422;2023-04-03T09:03:45;4.37;;;2.00;;
4786;SDS011;62338;48.832;9.422;2023-04-03T09:05:48;5.13;;;2.03;;
4786;SDS011;62338;48.832;9.422;2023-04-03T09:08:12;3.70;;;1.63;;
4786;SDS011;62338;48.832;9.422;2023-04-03T09:10:24;4.90;;;2.43;;
4786;SDS011;62338;48.832;9.422;2023-04-03T09:12:39;4.40;;;1.90;;
4786;SDS011;62338;48.832;9.422;2023-04-03T09:14:52;4.20;;;1.70;;
4786;SDS011;62338;48.832;9.422;2023-04-03T09:19:48;5.27;;;2.20;;
4786;SDS011;62338;48.832;9.422;2023-04-03T09:22:20;4.50;;;1.90;;
4786;SDS011;62338;48.832;9.422;2023-04-03T09:24:29;2.90;;;1.70;;
4786;SDS011;62338;48.832;9.422;2023-04-03T09:26:35;5.57;;;2.30;;
4786;SDS011;62338;48.832;9.422;2023-04-03T09:28:42;4.07;;;2.10;;
4786;SDS011;62338;48.832;9.422;2023-04-03T09:30:50;5.50;;;1.83;;
4786;SDS011;62338;48.832;9.422;2023-04-03T09:32:53;7.47;;;2.47;;
4786;SDS011;62338;48.832;9.422;2023-04-03T09:34:57;8.70;;;2.07;;
4786;SDS011;62338;48.832;9.422;2023-04-03T09:39:51;6.83;;;2.10;;
4786;SDS011;62338;48.832;9.422;2023-04-03T09:42:00;5.90;;;2.17;;
4786;SDS011;62338;48.832;9.422;2023-04-03T09:44:25;5.33;;;2.07;;
4786;SDS011;62338;48.832;9.422;2023-04-03T09:46:30;4.30;;;2.00;;
4786;SDS011;62338;48.832;9.422;2023-04-03T09:48:34;4.30;;;1.87;;
4786;SDS011;62338;48.832;9.422;2023-04-03T09:50:36;7.83;;;2.30;;
4786;SDS011;62338;48.832;9.422;2023-04-03T09:52:38;9.80;;;2.13;;
4786;SDS011;62338;48.832;9.422;2023-04-03T09:54:45;4.13;;;2.20;;
4786;SDS011;62338;48.832;9.422;2023-04-03T09:56:49;3.97;;;2.20;;
4786;SDS011;62338;48.832;9.422;2023-04-03T09:59:06;4.10;;;1.73;;
4786;SDS011;62338;48.832;9.422;2023-04-03T10:01:21;2.97;;;1.63;;
4786;SDS011;62338;48.832;9.422;2023-04-03T10:03:29;9.00;;;2.37;;
4786;SDS011;62338;48.832;9.422;2023-04-03T10:05:40;12.40;;;2.43;;
4786;SDS011;62338;48.832;9.422;2023-04-03T10:07:43;4.73;;;2.53;;
4786;SDS011;62338;48.832;9.422;2023-04-03T10:09:59;7.33;;;2.43;;
4786;SDS011;62338;48.832;9.422;2023-04-03T10:12:05;5.50;;;2.20;;
4786;SDS011;62338;48.832;9.422;2023-04-03T10:14:15;3.97;;;1.90;;
4786;SDS011;62338;48.832;9.422;2023-04-03T10:16:20;4.40;;;2.03;;
4786;SDS011;62338;48.832;9.422;2023-04-03T10:20:47;8.70;;;2.07;;
4786;SDS011;62338;48.832;9.422;2023-04-03T10:22:58;4.60;;;1.67;;
4786;SDS011;62338;48.832;9.422;2023-04-03T10:25:36;5.47;;;2.03;;
4786;SDS011;62338;48.832;9.422;2023-04-03T10:30:17;4.97;;;1.77;;
4786;SDS011;62338;48.832;9.422;2023-04-03T10:34:43;4.50;;;2.00;;
4786;SDS011;62338;48.832;9.422;2023-04-03T10:39:25;5.83;;;1.47;;
4786;SDS011;62338;48.832;9.422;2023-04-03T10:42:00;8.23;;;1.60;;
4786;SDS011;62338;48.832;9.422;2023-04-03T10:46:52;4.10;;;1.50;;
4786;SDS011;62338;48.832;9.422;2023-04-03T10:49:14;2.73;;;1.37;;
4786;SDS011;62338;48.832;9.422;2023-04-03T10:56:30;4.23;;;1.40;;
4786;SDS011;62338;48.832;9.422;2023-04-03T10:58:44;3.23;;;1.30;;
4786;SDS011;62338;48.832;9.422;2023-04-03T11:00:51;10.33;;;1.60;;
4786;SDS011;62338;48.832;9.422;2023-04-03T11:02:57;7.80;;;1.50;;
4786;SDS011;62338;48.832;9.422;2023-04-03T11:07:17;2.97;;;1.43;;
4786;SDS011;62338;48.832;9.422;2023-04-03T11:09:32;4.30;;;1.80;;
4786;SDS011;62338;48.832;9.422;2023-04-03T11:11:39;3.20;;;1.77;;
4786;SDS011;62338;48.832;9.422;2023-04-03T11:13:45;2.97;;;1.50;;
4786;SDS011;62338;48.832;9.422;2023-04-03T11:16:00;4.77;;;2.40;;
4786;SDS011;62338;48.832;9.422;2023-04-03T11:18:13;2.77;;;1.50;;
4786;SDS011;62338;48.832;9.422;2023-04-03T11:20:29;6.70;;;2.03;;
4786;SDS011;62338;48.832;9.422;2023-04-03T11:22:36;3.30;;;1.40;;
4786;SDS011;62338;48.832;9.422;2023-04-03T11:24:43;3.37;;;1.40;;
4786;SDS011;62338;48.832;9.422;2023-04-03T11:26:54;3.40;;;1.40;;
4786;SDS011;62338;48.832;9.422;2023-04-03T11:29:00;7.40;;;1.70;;
4786;SDS011;62338;48.832;9.422;2023-04-03T11:35:42;4.87;;;2.13;;
4786;SDS011;62338;48.832;9.422;2023-04-03T11:37:50;3.03;;;1.20;;
4786;SDS011;62338;48.832;9.422;2023-04-03T11:40:00;7.83;;;1.40;;
4786;SDS011;62338;48.832;9.422;2023-04-03T11:44:40;4.27;;;2.10;;
4786;SDS011;62338;48.832;9.422;2023-04-03T11:46:55;5.00;;;1.90;;
4786;SDS011;62338;48.832;9.422;2023-04-03T11:49:00;3.53;;;1.90;;
4786;SDS011;62338;48.832;9.422;2023-04-03T11:57:38;3.57;;;1.37;;
4786;SDS011;62338;48.832;9.422;2023-04-03T12:00:45;5.73;;;1.60;;
4786;SDS011;62338;48.832;9.422;2023-04-03T12:02:43;2.80;;;1.40;;
4786;SDS011;62338;48.832;9.422;2023-04-03T12:07:30;5.13;;;1.90;;
4786;SDS011;62338;48.832;9.422;2023-04-03T12:11:43;4.30;;;1.93;;
4786;SDS011;62338;48.832;9.422;2023-04-03T12:15:58;5.33;;;1.80;;
4786;SDS011;62338;48.832;9.422;2023-04-03T12:18:30;4.87;;;1.60;;
4786;SDS011;62338;48.832;9.422;2023-04-03T12:23:07;5.10;;;1.60;;
4786;SDS011;62338;48.832;9.422;2023-04-03T12:27:48;3.97;;;1.77;;
4786;SDS011;62338;48.832;9.422;2023-04-03T12:29:55;3.23;;;1.43;;
4786;SDS011;62338;48.832;9.422;2023-04-03T12:34:26;6.10;;;2.00;;
4786;SDS011;62338;48.832;9.422;2023-04-03T12:36:38;6.43;;;2.13;;
4786;SDS011;62338;48.832;9.422;2023-04-03T12:48:16;4.47;;;1.60;;
4786;SDS011;62338;48.832;9.422;2023-04-03T12:50:27;3.30;;;1.80;;
4786;SDS011;62338;48.832;9.422;2023-04-03T12:52:33;5.30;;;1.90;;
4786;SDS011;62338;48.832;9.422;2023-04-03T12:54:39;5.63;;;2.33;;
4786;SDS011;62338;48.832;9.422;2023-04-03T12:56:41;3.30;;;1.97;;
4786;SDS011;62338;48.832;9.422;2023-04-03T12:58:43;6.20;;;3.13;;
4786;SDS011;62338;48.832;9.422;2023-04-03T13:00:45;3.43;;;2.10;;
4786;SDS011;62338;48.832;9.422;2023-04-03T13:02:47;2.83;;;1.60;;
4786;SDS011;62338;48.832;9.422;2023-04-03T13:04:50;4.70;;;1.70;;
4786;SDS011;62338;48.832;9.422;2023-04-03T13:06:54;2.80;;;1.67;;
4786;SDS011;62338;48.832;9.422;2023-04-03T13:08:59;3.00;;;1.50;;
4786;SDS011;62338;48.832;9.422;2023-04-03T13:11:11;3.80;;;1.40;;
4786;SDS011;62338;48.832;9.422;2023-04-03T13:13:13;4.70;;;1.80;;
4786;SDS011;62338;48.832;9.422;2023-04-03T13:15:21;4.10;;;1.70;;
4786;SDS011;62338;48.832;9.422;2023-04-03T13:17:42;7.37;;;2.17;;
4786;SDS011;62338;48.832;9.422;2023-04-03T13:19:47;3.67;;;1.47;;
4786;SDS011;62338;48.832;9.422;2023-04-03T13:21:49;4.27;;;1.83;;
4786;SDS011;62338;48.832;9.422;2023-04-03T13:23:58;4.47;;;1.83;;
4786;SDS011;62338;48.832;9.422;2023-04-03T13:26:16;6.87;;;2.10;;
4786;SDS011;62338;48.832;9.422;2023-04-03T13:28:22;4.27;;;2.07;;
4786;SDS011;62338;48.832;9.422;2023-04-03T13:30:30;5.40;;;2.30;;
4786;SDS011;62338;48.832;9.422;2023-04-03T13:32:34;4.30;;;2.10;;
4786;SDS011;62338;48.832;9.422;2023-04-03T13:34:38;4.17;;;1.60;;
4786;SDS011;62338;48.832;9.422;2023-04-03T13:36:46;4.27;;;1.90;;
4786;SDS011;62338;48.832;9.422;2023-04-03T13:39:03;6.67;;;2.30;;
4786;SDS011;62338;48.832;9.422;2023-04-03T13:43:34;6.40;;;1.90;;
4786;SDS011;62338;48.832;9.422;2023-04-03T13:45:37;4.17;;;1.63;;
4786;SDS011;62338;48.832;9.422;2023-04-03T13:47:41;5.80;;;1.67;;
4786;SDS011;62338;48.832;9.422;2023-04-03T13:49:46;5.57;;;2.03;;
4786;SDS011;62338;48.832;9.422;2023-04-03T13:54:36;4.17;;;2.07;;
4786;SDS011;62338;48.832;9.422;2023-04-03T13:56:39;6.90;;;2.10;;
4786;SDS011;62338;48.832;9.422;2023-04-03T13:58:52;4.90;;;1.60;;
4786;SDS011;62338;48.832;9.422;2023-04-03T14:01:00;5.97;;;1.87;;